»·PEaware :: N445XS KSNA-KBUR

N445XS :: KSNA-KBUR

FLIGHT INFORMATION

Flight Status: Arrived
Operator: Privately registered:
United States
More flights under this callsign
Pilot: Caleb H. (26682)
Aircraft: BEECH AIRCRAFT BARON
(BE58)
More flights by this aircraft type
Origin: KSNA John Wayne-Orange Co
United States
Destination: KBUR Bob Hope-Burbank
United States
More flights between these airports :: More routes between these airports
Route: +SLI V23 POPPR SMO125R SMO SMO311R SILEX
File this flight plan on PilotEdge
Remarks: TEC RTE CSTP1
Altitude:
(Current/Filed)
4,000ft
Speed:
(Current/Filed)
150kts
Departed: 10-Feb-20 05:20 PM
Arrived: 10-Feb-20 05:51 PM
Distance/Time
Traveled:
40nm/0:31
Distance/Time
To Go:
Arrived

Flight Plot

Page will automatically refresh every two minutes.


Map Options




Map Legend


Flown Route
Filed Route
Departure Airport
Arrival Airport
Navaid (VOR, NDB)
Fix

Horizontal Profiles

Position Reports

Time Latitude Longitude Heading Altitude Ground
Speed
10-Feb-20 16:48 33.670926 -117.868103 36 60ft 0kts
10-Feb-20 16:49 33.670926 -117.868103 36 60ft 0kts
10-Feb-20 16:50 33.670926 -117.868103 36 60ft 0kts
10-Feb-20 16:51 33.670926 -117.868103 36 60ft 0kts
10-Feb-20 16:52 33.670926 -117.868103 36 60ft 0kts
10-Feb-20 16:53 33.670926 -117.868103 36 60ft 0kts
10-Feb-20 16:54 33.670926 -117.868103 36 60ft 0kts
10-Feb-20 16:56 33.670926 -117.868103 36 60ft 0kts
10-Feb-20 16:57 33.670926 -117.868103 36 60ft 0kts
10-Feb-20 16:58 33.670926 -117.868103 36 60ft 0kts
10-Feb-20 16:59 33.670926 -117.868103 36 60ft 0kts
10-Feb-20 17:00 33.670926 -117.868103 36 60ft 0kts
10-Feb-20 17:01 33.670926 -117.868103 36 60ft 0kts
10-Feb-20 17:02 33.670926 -117.868103 36 60ft 0kts
10-Feb-20 17:03 33.670926 -117.868103 36 60ft 0kts
10-Feb-20 17:04 33.670926 -117.868103 36 60ft 0kts
10-Feb-20 17:05 33.670926 -117.868103 36 60ft 0kts
10-Feb-20 17:06 33.670926 -117.868103 36 60ft 0kts
10-Feb-20 17:07 33.670926 -117.868103 36 60ft 0kts
10-Feb-20 17:08 33.670926 -117.868103 36 60ft 0kts
10-Feb-20 17:09 33.670926 -117.868103 36 60ft 0kts
10-Feb-20 17:10 33.670926 -117.868103 36 60ft 0kts
10-Feb-20 17:11 33.670926 -117.868103 36 60ft 0kts
10-Feb-20 17:12 33.670926 -117.868103 36 60ft 0kts
10-Feb-20 17:13 33.670926 -117.868103 36 60ft 0kts
10-Feb-20 17:14 33.671133 -117.868240 298 60ft 3kts
10-Feb-20 17:15 33.672993 -117.867406 50 60ft 10kts
10-Feb-20 17:16 33.674673 -117.866744 29 60ft 10kts
10-Feb-20 17:16 33.676921 -117.865304 27 60ft 10kts
10-Feb-20 17:18 33.679899 -117.863535 335 60ft 4kts
10-Feb-20 17:19 33.680055 -117.864132 246 60ft 9kts
10-Feb-20 17:19 33.664923 -117.875594 219 511ft 115kts
10-Feb-20 17:20 33.638784 -117.902014 220 1481ft 131kts
10-Feb-20 17:22 33.604274 -117.934798 223 2087ft 149kts
10-Feb-20 17:22 33.582043 -117.965607 262 2934ft 146kts
10-Feb-20 17:23 33.593359 -118.016635 292 3284ft 166kts
10-Feb-20 17:24 33.621502 -118.057832 357 3308ft 178kts
10-Feb-20 17:25 33.662254 -118.084964 315 3566ft 171kts
10-Feb-20 17:26 33.694242 -118.128081 311 3725ft 172kts
10-Feb-20 17:27 33.728785 -118.168108 320 4144ft 172kts
10-Feb-20 17:28 33.765831 -118.209846 319 3936ft 187kts
10-Feb-20 17:29 33.803601 -118.251007 318 4044ft 181kts
10-Feb-20 17:30 33.842124 -118.290587 325 3888ft 176kts
10-Feb-20 17:31 33.879468 -118.323613 320 3735ft 162kts
10-Feb-20 17:32 33.911810 -118.357626 319 3956ft 147kts
10-Feb-20 17:33 33.944008 -118.389495 321 3964ft 153kts
10-Feb-20 17:34 33.976835 -118.422546 320 3949ft 153kts
10-Feb-20 17:35 34.009236 -118.455666 320 3943ft 152kts
10-Feb-20 17:36 34.041467 -118.488846 320 3948ft 152kts
10-Feb-20 17:37 34.073749 -118.522138 320 3961ft 152kts
10-Feb-20 17:38 34.109941 -118.549347 333 3961ft 155kts
10-Feb-20 17:39 34.146445 -118.575571 296 3892ft 158kts
10-Feb-20 17:40 34.162175 -118.623646 293 3938ft 147kts
10-Feb-20 17:41 34.177031 -118.668950 306 3944ft 150kts
10-Feb-20 17:42 34.203539 -118.648685 93 3981ft 154kts
10-Feb-20 17:43 34.200681 -118.603925 89 4084ft 131kts
10-Feb-20 17:44 34.199731 -118.560000 84 4039ft 131kts
10-Feb-20 17:45 34.199282 -118.512955 87 3190ft 150kts
10-Feb-20 17:46 34.198720 -118.464208 88 2232ft 140kts
10-Feb-20 17:47 34.198519 -118.427140 83 1684ft 93kts
10-Feb-20 17:48 34.198313 -118.393830 89 1187ft 89kts
10-Feb-20 17:49 34.197840 -118.364389 89 721ft 77kts
10-Feb-20 17:50 34.198767 -118.360249 3 718ft 9kts
10-Feb-20 17:51 34.199642 -118.359699 81 720ft 0kts
10-Feb-20 17:52 34.199642 -118.359699 81 720ft 0kts
10-Feb-20 17:53 34.199642 -118.359699 81 720ft 0kts
10-Feb-20 17:54 34.199642 -118.359699 81 720ft 0kts
10-Feb-20 17:55 34.199642 -118.359699 81 720ft 0kts
10-Feb-20 17:56 34.199642 -118.359699 81 720ft 0kts

Navigation Log

Ident Type
Flight plan parsing failed, navigation log unavailable